GCGM Airport Information

Runway Information
Runway 09 Length 4921 ft width 98 ft
Elevation 716 ft Threshold 0 ft Heading 81
Runway 27 Length 4921 ft Width 98 ft
Elevation 712 ft Threshold 0 ft Heading 261
Airport Frequencies
Type GND Name GND Frequency 121.7 MHZ
Type TWR Name TWR Frequency 118.4 MHZ
Airport Navaids
Type VOR-DME Name La Gomera Frequency 116000 KHZ
Airport Weather Information & NOTAM
ADDS - METARS form results

(0852 UTC 19 September 2018)
Data provider http://aviationweather.gov/metar/data/
 
METAR text: GCGM 190830Z 07004KT 020V130 9999 FEW030 22/17 Q1018 RMK R09/07005KT 020V100 ARP/08005KT 040V130
Conditions at: GCGM (LA GOMERA ARPT , ES) observed 0830 UTC 19 September 2018
Temperature: 22.0°C (72°F)
Dewpoint: 17.0°C (63°F) [RH = 73%]
Pressure (altimeter): 30.06 inches Hg (1018.0 mb)
Winds: from the ENE (70 degrees) at 5 MPH (4 knots; 2.1 m/s)
Visibility: 6 or more miles (10+ km)
Ceiling: at least 12,000 feet AGL
Clouds: few clouds at 3000 feet AGL
Weather: no significant weather observed at this time

METAR text: GCGM 190800Z VRB02KT 9999 FEW030 22/18 Q1018 RMK R09/09004KT 050V120 ARP/09004KT 030V120
Conditions at: GCGM (LA GOMERA ARPT , ES) observed 0800 UTC 19 September 2018
Temperature: 22.0°C (72°F)
Dewpoint: 18.0°C (64°F) [RH = 78%]
Pressure (altimeter): 30.06 inches Hg (1018.0 mb)
Winds: variable direction winds at 2 MPH (2 knots; 1.0 m/s)
Visibility: 6 or more miles (10+ km)
Ceiling: at least 12,000 feet AGL
Clouds: few clouds at 3000 feet AGL
Weather: no significant weather observed at this time